Aberdeen, SD

6:22 AM CST on December 07, 2016 (GMT -0600)
Aberdeen Regional | | Change Station

Elev 1299 ft 45.44 °N, 98.41 °W | Updated 29 minutes ago

Overcast
Overcast
8 °F
Feels Like -12 °F
N
22
Wind Variable Wind from WNW
Gusts 32 mph

Today
High -- | Low -- °F
--% Chance of Precip.
Yesterday
High -- | Low -- °F
Precip. -- in
Pressure 30.22 in
Visibility 10.0 miles
Clouds Overcast 5000 ft
Windchill -12 °F
Dew Point 0 °F
Humidity 70%
Rainfall 0.00 in
Snow Depth Not available.
8:00 AM 4:50 PM
First Quarter, 52% visible
METAR KABR 071153Z AUTO 29019G28KT 10SM OVC050 M13/M18 A3013 RMK AO2 PK WND 29031/1105 SLP231 T11331178 11117 21133 51019
Pressure 30.22 in
Visibility 10.0 miles
Clouds Overcast 5000 ft
Windchill -12 °F
Dew Point 0 °F
Humidity 70%
Rainfall 0.00 in
Snow Depth Not available.
8:00 AM 4:50 PM
First Quarter, 52% visible
METAR KABR 071153Z AUTO 29019G28KT 10SM OVC050 M13/M18 A3013 RMK AO2 PK WND 29031/1105 SLP231 T11331178 11117 21133 51019

10-Day Weather Forecast

Almanac

Astronomy

Dec. 07, 2016 Rise Set
Actual Time
Civil Twilight
Nautical Twilight
Astronomical Twilight
Moon
Length of Visible Light
Length of Day
Tomorrow will be .
, % of the Moon is Illuminated

Today's Extremes

State Highs State Lows

Community

WunderPhotos

Upload Photos

1,956,111 photos uploaded!

WunderBlog® & News

Nearby

Air Quality

  Air Quality AQ Index Pollutant
Not available.

Snow Depth

Station Depth Elevation

Earthquake Activity

City Distance Mag. Time & Date
Minimum magnitude displayed is 2.5.

Coastal Water Temperatures

Place Temperature

Stations

Nearby Weather Stations

Station Location Temp. Windchill Dew Point Humidity Wind Precip. Elev Updated Type
                   

Watches & Warnings

There are currently no watches in effect.